Archival Weather

Chicago/Rockford Intl

Rockford, Illinois (KRFD)

Report from: Friday, February 3, 2023 7:54 AM CST
Current time: Tuesday, June 25, 2024 3:13 AM CDT

Current weather – Weather history – Daily summaries
Weather forecast

Temperature-19.4°C (-2.9°F)
Wind chill-27.6°C (-17.7°F)
Dew point-26.1°C (-15.0°F)
Winds 7 kts (3.6 m/s, 8.1 mph) Northwest (320°)
Visibility10 mi. (16.1 km)
Clouds Scattered clouds 12,000 ft. (3,658 m)
Altimeter30.62 in.Hg (1037 mB)
Relative humidity55 %
Density altitude-5,250 ft. (-1,600 m)
Sea-level pressure103.9 kPa (1039 mB, 30.67 in.Hg)
Remarks Automated weather observing station with precipitation discriminator
Flight conditions Visual Meteorological Conditions
Raw dataKRFD 031354Z 32007KT 10SM SCT120 M19/M26 A3062 RMK AO2 SLP385 T11941261
An unhandled exception has occurred. See browser dev tools for details. Reload 🗙